Time;durP1;ratioP1;P1;durP2;ratioP2;P2;SDS_P1;SDS_P2;PMS_P1;PMS_P2;Temp;Humidity;BMP_temperature;BMP_pressure;BME280_temperature;BME280_humidity;BME280_pressure;Samples;Min_cycle;Max_cycle;Signal;HPM_P1;HPM_P2
2022/11/14 00:00:49;;;;;;;0.83;0.83;;;6.60;99.90;;;;;;5002171;28;20681;-66
2022/11/14 00:03:16;;;;;;;1.27;1.27;;;6.60;99.90;;;;;;5002758;28;20246;-63
2022/11/14 00:05:44;;;;;;;1.10;1.10;;;6.60;99.90;;;;;;4999121;28;20243;-66
2022/11/14 00:08:17;;;;;;;1.00;1.00;;;6.60;99.90;;;;;;5004863;28;20305;-65
2022/11/14 00:10:45;;;;;;;1.30;1.30;;;6.50;99.90;;;;;;4988918;28;20297;-65
2022/11/14 00:13:13;;;;;;;1.27;1.27;;;6.50;99.90;;;;;;4989094;28;20214;-66
2022/11/14 00:15:40;;;;;;;1.00;1.00;;;6.40;99.90;;;;;;4982854;28;20312;-65
2022/11/14 00:18:08;;;;;;;0.90;0.90;;;6.30;99.90;;;;;;4991447;28;20202;-64
2022/11/14 00:20:36;;;;;;;0.80;0.80;;;6.40;99.90;;;;;;4996279;28;20370;-65
2022/11/14 00:23:03;;;;;;;1.00;1.00;;;6.30;99.90;;;;;;4998144;28;20304;-63
2022/11/14 00:25:32;;;;;;;0.80;0.80;;;6.40;99.90;;;;;;4995106;28;20240;-63
2022/11/14 00:28:00;;;;;;;1.00;1.00;;;6.40;99.90;;;;;;4985137;28;20285;-64
2022/11/14 00:30:27;;;;;;;0.90;0.90;;;6.40;99.90;;;;;;4983483;28;20313;-64
2022/11/14 00:32:54;;;;;;;1.20;1.20;;;6.40;99.90;;;;;;4979728;28;20215;-64
2022/11/14 00:35:21;;;;;;;0.83;0.83;;;6.40;99.90;;;;;;4982244;28;20234;-65
2022/11/14 00:37:48;;;;;;;0.90;0.90;;;6.30;99.90;;;;;;4985749;28;20687;-64
2022/11/14 00:40:16;;;;;;;0.97;0.90;;;6.40;99.90;;;;;;4980977;28;20205;-64
2022/11/14 00:42:44;;;;;;;0.87;0.87;;;6.40;99.90;;;;;;4991437;28;20229;-65
2022/11/14 00:45:11;;;;;;;1.00;1.00;;;6.50;99.90;;;;;;4990479;28;20229;-65
2022/11/14 00:47:38;;;;;;;0.90;0.90;;;6.40;99.90;;;;;;4991109;28;20202;-66
2022/11/14 00:50:06;;;;;;;0.90;0.90;;;6.40;99.90;;;;;;4991636;28;20647;-63
2022/11/14 00:52:34;;;;;;;1.33;1.33;;;6.50;99.90;;;;;;4991264;28;20249;-64
2022/11/14 00:55:01;;;;;;;1.10;1.10;;;6.40;99.90;;;;;;4991513;28;20226;-64
2022/11/14 00:57:28;;;;;;;0.93;0.93;;;6.40;99.90;;;;;;4986933;28;20216;-63
2022/11/14 00:59:58;;;;;;;0.97;0.97;;;6.40;99.90;;;;;;4996196;28;20206;-63
2022/11/14 01:02:25;;;;;;;0.90;0.90;;;6.40;99.90;;;;;;4993331;28;20283;-63
2022/11/14 01:04:51;;;;;;;0.90;0.90;;;6.40;99.90;;;;;;4992018;28;20640;-63
2022/11/14 01:07:18;;;;;;;1.00;1.00;;;6.50;99.90;;;;;;5014396;28;20202;-63
2022/11/14 01:09:45;;;;;;;0.70;0.70;;;6.50;99.90;;;;;;5001547;28;20233;-63
2022/11/14 01:12:12;;;;;;;0.70;0.70;;;6.50;99.90;;;;;;4996254;28;20305;-63
2022/11/14 01:14:39;;;;;;;0.87;0.87;;;6.70;99.90;;;;;;4994344;28;20629;-63
2022/11/14 01:17:08;;;;;;;0.90;0.90;;;6.40;99.90;;;;;;4991155;28;20206;-66
2022/11/14 01:19:35;;;;;;;1.00;1.00;;;6.40;99.90;;;;;;4986859;28;20213;-65
2022/11/14 01:22:02;;;;;;;1.20;1.20;;;6.40;99.90;;;;;;4989659;28;20292;-65
2022/11/14 01:24:29;;;;;;;1.30;1.30;;;6.50;99.90;;;;;;4991593;28;20810;-62
2022/11/14 01:26:56;;;;;;;1.43;1.43;;;6.50;99.90;;;;;;5000463;28;20265;-65
2022/11/14 01:29:23;;;;;;;1.50;1.47;;;6.50;99.90;;;;;;4987078;28;20208;-64
2022/11/14 01:31:50;;;;;;;1.40;1.30;;;6.60;99.90;;;;;;4987800;28;20558;-65
2022/11/14 01:34:18;;;;;;;1.50;1.40;;;6.60;99.90;;;;;;4982206;28;20198;-65
2022/11/14 01:36:45;;;;;;;1.30;1.30;;;6.60;99.90;;;;;;4989828;28;20281;-65
2022/11/14 01:39:12;;;;;;;1.50;1.50;;;6.60;99.90;;;;;;4986249;28;20260;-64
2022/11/14 01:41:39;;;;;;;1.30;1.30;;;6.60;99.90;;;;;;4991949;28;20289;-65
2022/11/14 01:44:12;;;;;;;1.40;1.40;;;6.60;99.90;;;;;;4988780;28;20308;-63
2022/11/14 01:46:42;;;;;;;1.17;1.17;;;6.70;99.90;;;;;;4988455;28;20226;-65
2022/11/14 01:49:15;;;;;;;1.00;1.00;;;6.70;99.90;;;;;;4988669;28;20211;-63
2022/11/14 01:51:47;;;;;;;1.00;1.00;;;6.60;99.90;;;;;;4985140;28;20206;-65
2022/11/14 01:54:18;;;;;;;0.60;0.60;;;6.60;99.90;;;;;;4993106;28;20206;-65
2022/11/14 01:56:49;;;;;;;0.60;0.60;;;6.60;99.90;;;;;;4988133;28;20297;-63
2022/11/14 01:59:20;;;;;;;0.70;0.70;;;6.60;99.90;;;;;;4995120;28;20635;-64
2022/11/14 02:01:49;;;;;;;0.73;0.73;;;6.60;99.90;;;;;;4995709;28;20261;-64
2022/11/14 02:04:20;;;;;;;0.90;0.90;;;6.60;99.90;;;;;;4990869;28;20222;-65
2022/11/14 02:06:50;;;;;;;0.70;0.70;;;6.60;99.90;;;;;;4991813;28;20210;-65
2022/11/14 02:09:17;;;;;;;0.80;0.80;;;6.50;99.90;;;;;;4985879;28;20691;-65
2022/11/14 02:11:46;;;;;;;0.80;0.80;;;6.40;99.90;;;;;;4993927;28;20640;-64
2022/11/14 02:14:13;;;;;;;0.80;0.80;;;6.40;99.90;;;;;;4991560;28;20824;-64
2022/11/14 02:16:42;;;;;;;0.87;0.87;;;6.40;99.90;;;;;;4987596;28;20257;-65
2022/11/14 02:19:09;;;;;;;1.00;1.00;;;6.40;99.90;;;;;;4991619;28;20210;-65
2022/11/14 02:21:37;;;;;;;1.10;1.10;;;6.30;99.90;;;;;;4986259;28;20241;-65
2022/11/14 02:24:09;;;;;;;0.90;0.90;;;6.20;99.90;;;;;;4984337;28;20237;-65
2022/11/14 02:26:36;;;;;;;0.90;0.90;;;6.20;99.90;;;;;;4991310;28;20292;-65
2022/11/14 02:29:03;;;;;;;1.00;1.00;;;6.30;99.90;;;;;;4982657;28;20777;-62
2022/11/14 02:31:30;;;;;;;1.00;1.00;;;6.20;99.90;;;;;;4987703;28;20214;-64
2022/11/14 02:33:57;;;;;;;0.87;0.87;;;6.20;99.90;;;;;;4984645;28;20652;-63
2022/11/14 02:36:24;;;;;;;1.10;1.10;;;6.20;99.90;;;;;;4991705;28;20482;-63
2022/11/14 02:38:52;;;;;;;1.00;1.00;;;6.20;99.90;;;;;;5003873;28;20210;-64
2022/11/14 02:41:19;;;;;;;1.07;1.07;;;6.20;99.90;;;;;;5011773;28;20300;-66
2022/11/14 02:43:46;;;;;;;1.00;1.00;;;6.20;99.90;;;;;;5002643;28;20312;-64
2022/11/14 02:46:13;;;;;;;1.37;1.27;;;6.20;99.90;;;;;;5008676;28;20249;-64
2022/11/14 02:48:39;;;;;;;1.30;1.30;;;6.20;99.90;;;;;;4998370;28;20214;-64
2022/11/14 02:51:06;;;;;;;1.73;1.63;;;6.10;99.90;;;;;;4999070;28;20349;-65
2022/11/14 02:53:33;;;;;;;1.60;1.50;;;6.10;99.90;;;;;;4996902;28;20297;-65
2022/11/14 02:56:01;;;;;;;1.57;1.40;;;6.10;99.90;;;;;;4997127;28;20232;-64
2022/11/14 02:58:28;;;;;;;2.20;1.50;;;6.20;99.90;;;;;;5000287;28;20217;-65
2022/11/14 03:00:55;;;;;;;1.50;1.40;;;6.10;99.90;;;;;;4997006;28;20297;-65
2022/11/14 03:03:22;;;;;;;1.63;1.53;;;6.10;99.90;;;;;;4996437;28;20292;-63
2022/11/14 03:05:52;;;;;;;2.80;2.23;;;6.10;99.90;;;;;;4999320;28;20308;-65
2022/11/14 03:08:19;;;;;;;4.53;2.07;;;6.10;99.90;;;;;;4995965;28;20198;-65
2022/11/14 03:10:48;;;;;;;2.50;2.30;;;6.00;99.90;;;;;;4996105;28;20217;-65
2022/11/14 03:13:16;;;;;;;4.50;2.20;;;6.00;99.90;;;;;;4996178;28;20687;-66
2022/11/14 03:15:43;;;;;;;3.30;2.33;;;6.00;99.90;;;;;;5004275;28;20767;-64
2022/11/14 03:18:10;;;;;;;2.27;1.97;;;6.00;99.90;;;;;;4998131;28;20300;-63
2022/11/14 03:20:37;;;;;;;2.20;2.00;;;5.90;99.90;;;;;;5016086;28;20560;-63
2022/11/14 03:23:04;;;;;;;1.73;1.63;;;5.90;99.90;;;;;;4998691;28;20293;-63
2022/11/14 03:25:31;;;;;;;2.37;1.83;;;5.80;99.90;;;;;;5002957;28;20320;-66
2022/11/14 03:27:58;;;;;;;3.80;1.90;;;5.80;99.90;;;;;;5018834;28;20185;-64
2022/11/14 03:30:26;;;;;;;4.60;2.20;;;5.80;99.90;;;;;;5025089;28;20217;-66
2022/11/14 03:32:53;;;;;;;8.73;3.30;;;5.80;99.90;;;;;;5015103;28;20206;-65
2022/11/14 03:35:20;;;;;;;2.47;2.00;;;5.70;99.90;;;;;;5016127;28;20222;-65
2022/11/14 03:37:48;;;;;;;3.77;2.60;;;5.70;99.90;;;;;;5017951;28;20202;-65
2022/11/14 03:40:18;;;;;;;1.73;1.63;;;5.70;99.90;;;;;;5005376;28;20216;-65
2022/11/14 03:42:46;;;;;;;1.50;1.50;;;5.70;99.90;;;;;;5005312;28;20202;-65
2022/11/14 03:45:13;;;;;;;1.20;1.20;;;5.70;99.90;;;;;;5003845;28;20253;-65
2022/11/14 03:47:41;;;;;;;1.10;1.10;;;5.80;99.90;;;;;;5001095;28;20216;-65
2022/11/14 03:50:09;;;;;;;1.10;1.10;;;5.80;99.90;;;;;;5000206;28;20206;-64
2022/11/14 03:52:36;;;;;;;1.10;1.10;;;5.80;99.90;;;;;;4998294;28;20214;-63
2022/11/14 03:55:03;;;;;;;1.00;1.00;;;5.80;99.90;;;;;;4997061;28;20253;-65
2022/11/14 03:57:30;;;;;;;1.07;1.07;;;5.80;99.90;;;;;;4997968;28;20283;-66
2022/11/14 03:59:57;;;;;;;1.10;1.10;;;5.90;99.90;;;;;;4999394;28;20249;-66
2022/11/14 04:02:24;;;;;;;1.20;1.20;;;5.90;99.90;;;;;;4996852;28;20202;-65
2022/11/14 04:04:52;;;;;;;1.57;1.47;;;5.90;99.90;;;;;;4995952;28;20237;-65
2022/11/14 04:07:19;;;;;;;1.10;1.10;;;5.90;99.90;;;;;;4996707;28;20240;-65
2022/11/14 04:09:46;;;;;;;1.63;1.50;;;6.00;99.90;;;;;;4997328;28;20209;-65
2022/11/14 04:12:13;;;;;;;1.20;1.20;;;6.00;99.90;;;;;;5007437;23;20689;-63
2022/11/14 04:14:39;;;;;;;1.10;1.10;;;6.20;99.90;;;;;;4997894;28;20198;-63
2022/11/14 04:17:06;;;;;;;1.00;1.00;;;6.10;99.90;;;;;;4999091;28;20248;-65
2022/11/14 04:19:34;;;;;;;0.87;0.87;;;6.20;99.90;;;;;;4997763;28;20210;-64
2022/11/14 04:22:02;;;;;;;1.00;1.00;;;6.20;99.90;;;;;;4998286;28;20589;-65
2022/11/14 04:24:29;;;;;;;0.90;0.90;;;6.30;99.90;;;;;;4998353;28;20301;-63
2022/11/14 04:26:56;;;;;;;1.07;1.07;;;6.30;99.90;;;;;;4999651;28;20212;-64
2022/11/14 04:29:23;;;;;;;0.90;0.90;;;6.50;99.90;;;;;;4999761;28;20273;-65
2022/11/14 04:31:50;;;;;;;0.70;0.70;;;6.40;99.90;;;;;;4999297;28;20293;-65
2022/11/14 04:34:18;;;;;;;0.83;0.83;;;6.40;99.90;;;;;;4997870;28;20202;-65
2022/11/14 04:36:45;;;;;;;0.87;0.80;;;6.30;99.90;;;;;;4994849;28;20249;-63
2022/11/14 04:39:13;;;;;;;1.10;1.10;;;6.30;99.90;;;;;;4999771;28;20206;-65
2022/11/14 04:41:40;;;;;;;0.90;0.90;;;6.20;99.90;;;;;;5001743;28;20313;-65
2022/11/14 04:44:07;;;;;;;0.70;0.70;;;6.20;99.90;;;;;;4996306;28;20234;-65
2022/11/14 04:46:34;;;;;;;0.90;0.90;;;6.10;99.90;;;;;;4997435;28;20270;-65
2022/11/14 04:49:01;;;;;;;0.90;0.90;;;6.10;99.90;;;;;;4996554;28;20556;-65
2022/11/14 04:51:28;;;;;;;0.83;0.83;;;6.10;99.90;;;;;;4997241;28;20233;-65
2022/11/14 04:53:55;;;;;;;0.80;0.80;;;6.00;99.90;;;;;;4996341;28;20301;-62
2022/11/14 04:56:24;;;;;;;0.77;0.77;;;6.00;99.90;;;;;;4993698;28;20202;-64
2022/11/14 04:58:51;;;;;;;0.90;0.90;;;6.10;99.90;;;;;;4997212;28;20217;-64
2022/11/14 05:01:18;;;;;;;0.90;0.90;;;6.10;99.90;;;;;;4992812;28;20247;-64
2022/11/14 05:03:44;;;;;;;1.00;1.00;;;6.10;99.90;;;;;;4997379;28;20210;-64
2022/11/14 05:06:11;;;;;;;0.70;0.70;;;6.10;99.90;;;;;;4996229;28;20230;-64
2022/11/14 05:08:38;;;;;;;0.70;0.70;;;6.10;99.90;;;;;;4996839;28;20889;-65
2022/11/14 05:11:05;;;;;;;0.80;0.80;;;6.20;99.90;;;;;;4996538;28;20668;-63
2022/11/14 05:13:33;;;;;;;0.80;0.80;;;6.20;99.90;;;;;;5000742;28;20265;-65
2022/11/14 05:16:00;;;;;;;0.80;0.80;;;6.20;99.90;;;;;;4994749;28;20198;-64
2022/11/14 05:18:27;;;;;;;0.77;0.77;;;6.20;99.90;;;;;;4996414;28;20801;-65
2022/11/14 05:20:58;;;;;;;0.90;0.90;;;6.30;99.90;;;;;;4995612;28;20216;-65
2022/11/14 05:23:25;;;;;;;0.70;0.70;;;6.30;99.90;;;;;;4996630;28;20194;-63
2022/11/14 05:26:00;;;;;;;0.73;0.73;;;6.30;99.90;;;;;;4996146;28;20230;-65
2022/11/14 05:28:27;;;;;;;0.93;0.93;;;6.40;99.90;;;;;;4995339;28;20197;-63
2022/11/14 05:31:00;;;;;;;0.90;0.90;;;6.50;99.90;;;;;;4996878;28;20232;-64
2022/11/14 05:33:27;;;;;;;0.70;0.70;;;6.50;99.90;;;;;;4995516;28;20637;-64
2022/11/14 05:35:54;;;;;;;0.80;0.80;;;6.60;99.90;;;;;;4992041;28;20210;-64
2022/11/14 05:38:21;;;;;;;0.80;0.80;;;6.60;99.90;;;;;;4993282;28;20205;-63
2022/11/14 05:40:48;;;;;;;0.80;0.80;;;6.60;99.90;;;;;;4992576;28;20233;-65
2022/11/14 05:43:15;;;;;;;0.60;0.60;;;6.60;99.90;;;;;;4993061;28;20679;-63
2022/11/14 05:45:42;;;;;;;0.80;0.80;;;6.50;99.90;;;;;;4992617;28;20317;-63
2022/11/14 05:48:10;;;;;;;0.70;0.70;;;6.50;99.90;;;;;;4992642;28;20217;-62
2022/11/14 05:50:37;;;;;;;0.73;0.73;;;6.50;99.90;;;;;;4995808;28;20202;-65
2022/11/14 05:53:04;;;;;;;0.80;0.80;;;6.50;99.90;;;;;;4998672;28;20226;-64
2022/11/14 05:55:31;;;;;;;0.70;0.70;;;6.50;99.90;;;;;;4993342;28;20206;-64
2022/11/14 05:57:58;;;;;;;0.53;0.53;;;6.50;99.90;;;;;;4993150;28;20214;-65
2022/11/14 06:00:25;;;;;;;0.60;0.60;;;6.50;99.90;;;;;;4992788;28;20202;-63
2022/11/14 06:02:53;;;;;;;0.70;0.70;;;6.50;99.90;;;;;;4992476;28;20236;-63
2022/11/14 06:05:21;;;;;;;0.70;0.70;;;6.50;99.90;;;;;;4984886;28;20237;-63
2022/11/14 06:07:48;;;;;;;0.70;0.70;;;6.50;99.90;;;;;;4995168;28;20201;-64
2022/11/14 06:10:15;;;;;;;0.90;0.90;;;6.50;99.90;;;;;;4996435;28;20853;-66
2022/11/14 06:12:42;;;;;;;0.57;0.57;;;6.50;99.90;;;;;;4996316;28;20317;-63
2022/11/14 06:15:09;;;;;;;0.40;0.40;;;6.60;99.90;;;;;;4995631;28;20560;-63
2022/11/14 06:17:36;;;;;;;0.60;0.60;;;6.60;99.90;;;;;;4996399;28;20727;-64
2022/11/14 06:20:04;;;;;;;0.50;0.50;;;6.60;99.90;;;;;;4996435;28;20210;-64
2022/11/14 06:22:33;;;;;;;0.60;0.60;;;6.60;99.90;;;;;;5001198;28;20288;-65
2022/11/14 06:25:00;;;;;;;0.67;0.67;;;6.70;99.90;;;;;;4999903;28;20374;-64
2022/11/14 06:27:27;;;;;;;0.70;0.70;;;6.80;99.90;;;;;;5000942;28;20271;-64
2022/11/14 06:29:54;;;;;;;0.60;0.60;;;6.70;99.90;;;;;;4994658;28;20207;-65
2022/11/14 06:32:21;;;;;;;0.70;0.70;;;6.80;99.90;;;;;;4997379;28;20231;-65
2022/11/14 06:34:48;;;;;;;0.60;0.60;;;6.80;99.90;;;;;;4992320;28;20274;-64
2022/11/14 06:37:14;;;;;;;0.80;0.80;;;6.80;99.90;;;;;;4995863;28;20616;-64
2022/11/14 06:39:43;;;;;;;0.60;0.60;;;6.80;99.90;;;;;;4996054;28;20214;-63
2022/11/14 06:42:10;;;;;;;0.90;0.90;;;6.80;99.90;;;;;;4995781;28;20308;-63
2022/11/14 06:44:36;;;;;;;0.80;0.80;;;6.80;99.90;;;;;;4998388;28;20206;-63
2022/11/14 06:47:03;;;;;;;0.60;0.60;;;6.80;99.90;;;;;;4997351;28;20681;-62
2022/11/14 06:49:30;;;;;;;0.70;0.70;;;6.80;99.90;;;;;;4995010;28;20588;-63
2022/11/14 06:51:57;;;;;;;0.60;0.60;;;6.70;99.90;;;;;;4995696;28;20222;-61
2022/11/14 06:54:24;;;;;;;0.80;0.80;;;6.70;99.90;;;;;;4994756;28;20670;-64
2022/11/14 06:56:52;;;;;;;0.80;0.80;;;6.80;99.90;;;;;;4995659;28;20293;-63
2022/11/14 06:59:19;;;;;;;0.80;0.80;;;6.80;99.90;;;;;;4994970;28;20683;-63
2022/11/14 07:01:45;;;;;;;0.80;0.80;;;6.80;99.90;;;;;;4995696;28;20222;-63
2022/11/14 07:04:12;;;;;;;0.80;0.80;;;6.80;99.90;;;;;;4994371;28;20202;-63
2022/11/14 07:06:39;;;;;;;0.80;0.80;;;6.90;99.90;;;;;;4995231;28;20444;-63
2022/11/14 07:09:06;;;;;;;0.80;0.80;;;7.00;99.90;;;;;;4994925;28;21141;-62
2022/11/14 07:11:36;;;;;;;0.70;0.70;;;7.00;99.90;;;;;;4994396;28;20242;-65
2022/11/14 07:14:05;;;;;;;0.70;0.70;;;7.10;99.90;;;;;;4992500;28;20197;-64
2022/11/14 07:16:34;;;;;;;0.90;0.90;;;7.10;99.90;;;;;;4998285;28;20206;-64
2022/11/14 07:19:03;;;;;;;0.90;0.90;;;7.10;99.90;;;;;;5000142;28;20210;-62
2022/11/14 07:21:31;;;;;;;0.80;0.80;;;7.10;99.90;;;;;;4996148;28;20744;-63
2022/11/14 07:23:58;;;;;;;0.77;0.77;;;7.20;99.90;;;;;;4994472;28;20206;-63
2022/11/14 07:26:25;;;;;;;0.83;0.83;;;7.20;99.90;;;;;;4994857;28;20218;-63
2022/11/14 07:28:52;;;;;;;0.77;0.77;;;7.20;99.90;;;;;;4995314;28;20209;-63
2022/11/14 07:31:20;;;;;;;1.07;0.97;;;7.20;99.90;;;;;;4995104;28;20313;-64
2022/11/14 07:33:48;;;;;;;0.80;0.80;;;7.20;99.90;;;;;;4998732;28;20197;-62
2022/11/14 07:36:15;;;;;;;0.77;0.77;;;7.20;99.90;;;;;;4995250;28;20200;-64
2022/11/14 07:38:42;;;;;;;0.70;0.70;;;7.20;99.90;;;;;;4995268;28;20202;-65
2022/11/14 07:41:12;;;;;;;0.70;0.70;;;7.30;99.90;;;;;;4994811;28;20206;-64
2022/11/14 07:43:39;;;;;;;1.00;1.00;;;7.30;99.90;;;;;;4994815;28;20209;-64
2022/11/14 07:46:08;;;;;;;1.00;1.00;;;7.30;99.90;;;;;;4994493;28;20225;-63
2022/11/14 07:48:36;;;;;;;1.03;1.03;;;7.40;99.90;;;;;;4994779;28;20752;-64
2022/11/14 07:51:05;;;;;;;0.90;0.90;;;7.40;99.90;;;;;;4994275;28;20208;-64
2022/11/14 07:53:32;;;;;;;0.90;0.90;;;7.40;99.90;;;;;;4994677;28;20216;-64
2022/11/14 07:56:04;;;;;;;1.00;1.00;;;7.50;99.90;;;;;;4994080;28;20202;-63
2022/11/14 07:58:30;;;;;;;0.90;0.90;;;7.50;99.90;;;;;;4994685;28;20664;-63
2022/11/14 08:01:00;;;;;;;1.00;1.00;;;7.60;99.90;;;;;;4991334;28;20674;-63
2022/11/14 08:03:27;;;;;;;0.90;0.90;;;7.60;99.90;;;;;;5006498;28;20695;-62
2022/11/14 08:06:02;;;;;;;1.20;1.20;;;7.70;99.90;;;;;;4993857;28;20222;-63
2022/11/14 08:08:29;;;;;;;1.00;1.00;;;7.70;99.90;;;;;;4996256;28;20201;-62
2022/11/14 08:10:57;;;;;;;1.10;1.10;;;7.80;99.90;;;;;;4999906;28;20202;-65
2022/11/14 08:13:25;;;;;;;1.23;1.23;;;7.80;99.90;;;;;;4997098;28;20209;-62
2022/11/14 08:15:52;;;;;;;1.23;1.13;;;7.80;99.90;;;;;;4989772;28;20194;-62
2022/11/14 08:18:19;;;;;;;1.00;1.00;;;7.80;99.90;;;;;;4991034;28;20206;-65
2022/11/14 08:20:45;;;;;;;1.10;1.00;;;7.80;99.90;;;;;;4990432;28;20207;-63
2022/11/14 08:23:14;;;;;;;0.80;0.80;;;7.70;99.90;;;;;;4993540;28;20687;-62
2022/11/14 08:25:41;;;;;;;1.40;1.00;;;7.70;99.90;;;;;;4993967;28;20591;-64
2022/11/14 08:28:08;;;;;;;1.03;1.03;;;7.70;99.90;;;;;;4991880;28;20212;-63
2022/11/14 08:30:35;;;;;;;1.10;1.10;;;7.70;99.90;;;;;;4992302;28;20260;-63
2022/11/14 08:33:03;;;;;;;0.90;0.90;;;7.70;99.90;;;;;;4996711;28;20308;-64
2022/11/14 08:35:30;;;;;;;1.00;1.00;;;7.80;99.90;;;;;;4990695;28;20210;-63
2022/11/14 08:37:57;;;;;;;0.87;0.87;;;7.70;99.90;;;;;;4990146;28;20217;-63
2022/11/14 08:40:25;;;;;;;1.10;1.07;;;7.70;99.90;;;;;;4996579;28;20282;-64
2022/11/14 08:42:52;;;;;;;1.10;1.10;;;7.80;99.90;;;;;;4994962;28;20228;-64
2022/11/14 08:45:19;;;;;;;0.97;0.97;;;7.80;99.90;;;;;;4993687;28;20206;-64
2022/11/14 08:47:52;;;;;;;1.70;1.10;;;7.90;99.90;;;;;;4995733;28;20204;-63
2022/11/14 08:50:19;;;;;;;1.00;1.00;;;7.90;99.90;;;;;;4994957;28;20209;-64
2022/11/14 08:52:50;;;;;;;0.97;0.97;;;8.00;99.90;;;;;;4995788;28;20696;-64
2022/11/14 08:55:17;;;;;;;1.20;1.20;;;8.10;99.90;;;;;;4994403;28;20213;-62
2022/11/14 08:57:46;;;;;;;1.20;1.20;;;8.20;99.90;;;;;;4994235;28;20210;-63
2022/11/14 09:00:14;;;;;;;1.23;1.23;;;8.20;99.90;;;;;;4996072;28;20202;-65
2022/11/14 09:02:41;;;;;;;1.30;1.30;;;8.10;99.90;;;;;;4993856;28;20236;-65
2022/11/14 09:05:08;;;;;;;1.20;1.20;;;7.90;99.90;;;;;;4990031;28;20206;-63
2022/11/14 09:07:35;;;;;;;1.53;1.50;;;7.90;99.90;;;;;;4997168;28;20206;-64
2022/11/14 09:10:02;;;;;;;1.40;1.40;;;8.00;99.90;;;;;;4992918;28;20202;-63
2022/11/14 09:12:29;;;;;;;1.40;1.40;;;8.10;99.90;;;;;;4993388;28;20325;-64
2022/11/14 09:14:58;;;;;;;1.40;1.30;;;8.00;99.90;;;;;;4992716;28;20233;-63
2022/11/14 09:17:25;;;;;;;1.23;1.23;;;7.90;99.90;;;;;;4997365;28;20206;-64
2022/11/14 09:19:51;;;;;;;1.50;1.50;;;8.00;99.90;;;;;;4998929;28;20288;-64
2022/11/14 09:22:18;;;;;;;1.30;1.30;;;8.10;99.90;;;;;;4997725;28;20222;-64
2022/11/14 09:24:48;;;;;;;1.33;1.33;;;8.10;99.90;;;;;;4995546;28;20224;-66
2022/11/14 09:27:15;;;;;;;1.20;1.20;;;8.10;99.90;;;;;;4997386;28;20285;-64
2022/11/14 09:29:41;;;;;;;1.87;1.77;;;8.30;99.90;;;;;;4996261;28;20302;-64
2022/11/14 09:32:10;;;;;;;1.27;1.27;;;8.40;99.90;;;;;;4995564;28;20897;-66
2022/11/14 09:34:41;;;;;;;1.70;1.60;;;8.60;99.90;;;;;;4995907;28;20289;-64
2022/11/14 09:37:08;;;;;;;1.60;1.50;;;8.60;99.90;;;;;;4995372;28;20213;-64
2022/11/14 09:39:39;;;;;;;1.80;1.70;;;8.70;99.90;;;;;;4998928;28;20217;-63
2022/11/14 09:42:25;;;;;;;1.80;1.70;;;8.70;99.90;;;;;;4998398;28;21570;-64
2022/11/14 09:44:58;;;;;;;1.60;1.60;;;8.60;99.90;;;;;;4995674;28;20583;-65
2022/11/14 09:47:29;;;;;;;1.90;1.80;;;8.60;99.90;;;;;;4995403;28;20261;-65
2022/11/14 09:50:02;;;;;;;1.70;1.60;;;8.60;99.90;;;;;;4996373;28;20293;-64
2022/11/14 09:52:35;;;;;;;1.90;1.80;;;8.60;99.90;;;;;;4996125;28;20233;-64
2022/11/14 09:55:09;;;;;;;1.93;1.83;;;8.60;99.90;;;;;;4995624;28;20297;-63
2022/11/14 09:57:37;;;;;;;1.70;1.60;;;8.60;99.90;;;;;;4995133;28;20197;-64
2022/11/14 10:00:13;;;;;;;1.50;1.50;;;8.60;99.90;;;;;;4989444;28;20202;-65
2022/11/14 10:02:54;;;;;;;1.77;1.70;;;8.60;99.90;;;;;;4997810;28;20230;-64
2022/11/14 10:05:38;;;;;;;1.80;1.70;;;8.70;99.90;;;;;;4993825;28;20223;-62
2022/11/14 10:08:16;;;;;;;1.80;1.70;;;8.70;99.90;;;;;;4997388;28;20233;-64
2022/11/14 10:10:52;;;;;;;1.43;1.33;;;8.60;99.90;;;;;;4993918;28;20430;-65
2022/11/14 10:13:34;;;;;;;1.50;1.40;;;8.60;99.90;;;;;;4996071;28;20214;-66
2022/11/14 10:16:07;;;;;;;1.40;1.30;;;8.80;99.90;;;;;;4995901;28;20241;-64
2022/11/14 10:18:59;;;;;;;1.30;1.30;;;8.90;99.90;;;;;;4999603;28;20265;-65
2022/11/14 10:21:49;;;;;;;1.37;1.37;;;9.00;99.90;;;;;;4991578;28;20229;-66
2022/11/14 10:24:30;;;;;;;1.77;1.67;;;9.00;99.90;;;;;;4995635;28;20240;-66
2022/11/14 10:27:02;;;;;;;1.50;1.50;;;9.10;99.90;;;;;;4991305;28;20326;-65
2022/11/14 10:29:55;;;;;;;1.90;1.80;;;9.10;99.90;;;;;;4992229;28;20269;-64
2022/11/14 10:32:50;;;;;;;1.60;1.50;;;9.00;99.90;;;;;;4990605;28;20230;-63
2022/11/14 10:35:21;;;;;;;1.60;1.50;;;8.90;99.90;;;;;;4998803;28;20205;-64
2022/11/14 10:37:59;;;;;;;1.73;1.63;;;8.80;99.90;;;;;;4999666;28;20202;-64
2022/11/14 10:40:33;;;;;;;1.60;1.60;;;8.70;99.90;;;;;;4997747;28;20265;-64
2022/11/14 10:43:05;;;;;;;1.80;1.70;;;8.70;99.90;;;;;;4999798;28;20250;-65
2022/11/14 10:45:37;;;;;;;1.30;1.30;;;8.70;99.90;;;;;;5000047;28;20214;-64
2022/11/14 10:48:10;;;;;;;1.77;1.67;;;8.80;99.90;;;;;;5000814;28;20294;-64
2022/11/14 10:50:45;;;;;;;1.80;1.70;;;8.80;99.90;;;;;;5002442;28;20301;-63
2022/11/14 10:53:21;;;;;;;1.70;1.60;;;9.00;99.90;;;;;;5001646;28;20304;-63
2022/11/14 10:55:51;;;;;;;1.80;1.70;;;9.10;99.90;;;;;;5002967;28;20305;-63
2022/11/14 10:58:18;;;;;;;1.90;1.80;;;9.10;99.90;;;;;;5000321;28;20198;-65
2022/11/14 11:00:45;;;;;;;1.80;1.70;;;9.00;99.90;;;;;;4999993;28;20263;-64
2022/11/14 11:03:11;;;;;;;1.87;1.77;;;9.20;99.90;;;;;;4994394;28;20229;-64
2022/11/14 11:05:48;;;;;;;1.80;1.70;;;9.30;99.90;;;;;;4992092;28;20217;-65
2022/11/14 11:13:54;;;;;;;1.70;1.60;;;9.70;99.90;;;;;;4992493;28;20210;-64
2022/11/14 11:16:23;;;;;;;1.33;1.33;;;9.90;99.90;;;;;;4988064;28;20206;-64
2022/11/14 11:18:50;;;;;;;1.47;1.47;;;10.00;99.90;;;;;;4994909;28;20707;-64
2022/11/14 11:21:20;;;;;;;1.47;1.47;;;10.10;99.90;;;;;;4996041;28;20226;-65
2022/11/14 11:23:52;;;;;;;1.50;1.50;;;10.20;99.90;;;;;;4998828;28;20198;-66
2022/11/14 11:26:23;;;;;;;1.80;1.70;;;10.30;99.90;;;;;;4994529;28;20316;-65
2022/11/14 11:29:05;;;;;;;2.00;1.90;;;10.50;99.90;;;;;;4994756;28;20699;-64
2022/11/14 11:31:50;;;;;;;1.50;1.50;;;10.50;99.90;;;;;;4991565;28;20316;-65
2022/11/14 11:34:23;;;;;;;1.70;1.60;;;10.70;99.90;;;;;;4997194;28;20684;-66
2022/11/14 11:36:57;;;;;;;1.60;1.50;;;10.80;99.90;;;;;;4991980;28;20198;-65
2022/11/14 11:39:28;;;;;;;1.60;1.50;;;10.90;99.90;;;;;;4994984;28;20212;-64
2022/11/14 11:41:57;;;;;;;1.60;1.50;;;10.90;99.90;;;;;;4996667;28;20218;-64
2022/11/14 11:44:33;;;;;;;1.83;1.60;;;11.00;99.90;;;;;;4984451;28;20203;-65
2022/11/14 11:47:02;;;;;;;1.70;1.60;;;11.10;99.90;;;;;;4996134;28;20214;-63
2022/11/14 11:49:39;;;;;;;1.60;1.50;;;11.10;99.90;;;;;;4996859;28;20208;-66
2022/11/14 11:52:13;;;;;;;1.40;1.40;;;11.00;99.90;;;;;;4996379;28;20253;-65
2022/11/14 11:54:53;;;;;;;1.30;1.30;;;11.00;99.90;;;;;;4991525;28;20209;-62
2022/11/14 11:57:28;;;;;;;1.40;1.40;;;11.00;99.90;;;;;;4997579;28;20239;-62
2022/11/14 12:00:05;;;;;;;1.40;1.40;;;11.10;99.90;;;;;;4997745;28;20237;-61
2022/11/14 12:02:33;;;;;;;1.77;1.67;;;11.20;99.90;;;;;;4992481;28;20230;-64
2022/11/14 12:05:00;;;;;;;1.80;1.70;;;11.30;99.90;;;;;;4991249;28;20578;-63
2022/11/14 12:07:43;;;;;;;1.80;1.70;;;11.40;99.90;;;;;;4993608;28;20218;-64
2022/11/14 12:10:15;;;;;;;1.77;1.67;;;11.60;99.90;;;;;;5000342;28;20198;-65
2022/11/14 12:13:21;;;;;;;0.90;0.90;;;11.90;99.90;;;;;;4996222;28;20779;-66
2022/11/14 12:15:59;;;;;;;0.90;0.90;;;12.10;99.90;;;;;;4985293;28;20201;-64
2022/11/14 12:18:58;;;;;;;1.27;1.07;;;12.50;99.90;;;;;;4989625;28;20601;-64
2022/11/14 12:21:36;;;;;;;1.00;1.00;;;12.80;99.90;;;;;;4993127;28;20776;-64
2022/11/14 12:24:29;;;;;;;0.90;0.90;;;13.10;99.90;;;;;;4995428;28;20202;-65
2022/11/14 12:27:12;;;;;;;0.90;0.90;;;13.30;99.90;;;;;;4990704;28;20678;-64
2022/11/14 12:29:56;;;;;;;0.90;0.90;;;13.50;99.90;;;;;;4992826;28;20210;-62
2022/11/14 12:32:31;;;;;;;0.80;0.80;;;13.70;99.90;;;;;;4988934;28;20229;-65
2022/11/14 12:34:59;;;;;;;0.90;0.90;;;13.90;99.90;;;;;;4993369;28;20290;-63
2022/11/14 12:37:33;;;;;;;0.80;0.80;;;14.10;99.90;;;;;;4994347;28;20199;-64
2022/11/14 12:40:04;;;;;;;1.13;1.03;;;14.30;99.90;;;;;;4988425;28;20230;-62
2022/11/14 12:42:32;;;;;;;0.70;0.70;;;14.40;99.90;;;;;;4991563;28;20233;-62
2022/11/14 12:44:59;;;;;;;0.70;0.70;;;14.50;99.90;;;;;;4987902;28;20214;-62
2022/11/14 12:47:27;;;;;;;1.00;0.90;;;14.60;99.90;;;;;;4989935;28;20683;-64
2022/11/14 12:50:30;;;;;;;0.90;0.90;;;14.60;99.90;;;;;;4993814;28;20216;-65
2022/11/14 12:52:56;;;;;;;1.07;0.70;;;14.60;99.90;;;;;;4985698;28;20225;-63
2022/11/14 12:55:59;;;;;;;0.97;0.97;;;14.60;99.90;;;;;;4988621;28;20207;-64
2022/11/14 12:58:54;;;;;;;0.90;0.90;;;14.40;99.90;;;;;;4987126;28;20212;-65
2022/11/14 13:01:34;;;;;;;0.87;0.87;;;14.60;99.90;;;;;;4985108;28;20218;-64
2022/11/14 13:04:16;;;;;;;1.00;1.00;;;14.60;99.90;;;;;;4992160;28;20680;-64
2022/11/14 13:06:52;;;;;;;0.80;0.80;;;14.60;99.90;;;;;;4993618;28;20225;-65
2022/11/14 13:09:31;;;;;;;0.70;0.70;;;14.60;99.90;;;;;;5018024;23;20240;-66
2022/11/14 13:23:57;;;;;;;1.00;0.90;;;14.80;99.90;;;;;;5013034;28;20731;-65
2022/11/14 13:26:38;;;;;;;0.70;0.70;;;14.80;99.90;;;;;;5005766;28;20200;-64